createdAt,value
2017-11-08T00:00:15.354Z,15.13
2017-11-08T00:02:42.796Z,15.70
2017-11-08T00:05:10.223Z,15.53
2017-11-08T00:07:37.705Z,14.30
2017-11-08T00:10:05.157Z,16.20
2017-11-08T00:12:33.355Z,16.27
2017-11-08T00:15:13.550Z,13.77
2017-11-08T00:17:41.001Z,13.07
2017-11-08T00:20:08.495Z,14.80
2017-11-08T00:22:36.720Z,14.00
2017-11-08T00:25:04.165Z,14.77
2017-11-08T00:27:31.601Z,15.17
2017-11-08T00:29:59.080Z,16.10
2017-11-08T00:32:27.272Z,15.53
2017-11-08T00:34:55.481Z,13.13
2017-11-08T00:37:22.912Z,15.10
2017-11-08T00:39:50.365Z,14.43
2017-11-08T00:42:17.823Z,16.30
2017-11-08T00:44:45.237Z,15.00
2017-11-08T00:47:12.703Z,14.20
2017-11-08T00:49:40.168Z,15.40
2017-11-08T00:52:08.396Z,14.97
2017-11-08T00:54:35.917Z,15.00
2017-11-08T00:57:03.369Z,15.30
2017-11-08T00:59:30.821Z,15.40
2017-11-08T01:01:58.315Z,14.30
2017-11-08T01:04:25.752Z,14.77
2017-11-08T01:06:53.220Z,14.03
2017-11-08T01:09:20.675Z,14.93
2017-11-08T01:11:48.117Z,15.70
2017-11-08T01:14:15.564Z,16.00
2017-11-08T01:16:43.032Z,14.47
2017-11-08T01:19:10.489Z,16.63
2017-11-08T01:21:37.924Z,15.13
2017-11-08T01:24:05.369Z,15.50
2017-11-08T01:26:32.853Z,13.97
2017-11-08T01:29:00.304Z,15.67
2017-11-08T01:31:27.762Z,15.20
2017-11-08T01:33:55.200Z,15.27
2017-11-08T01:36:22.664Z,15.90
2017-11-08T01:38:50.101Z,15.27
2017-11-08T01:41:24.369Z,14.57
2017-11-08T01:43:54.249Z,16.00
2017-11-08T01:46:21.720Z,15.53
2017-11-08T01:48:49.180Z,15.57
2017-11-08T01:51:16.641Z,16.57
2017-11-08T01:53:44.073Z,15.27
2017-11-08T01:56:11.601Z,15.90
2017-11-08T01:58:39.070Z,15.20
2017-11-08T02:01:06.513Z,15.90
2017-11-08T02:03:33.961Z,15.93
2017-11-08T02:06:01.419Z,14.67
2017-11-08T02:08:28.858Z,14.13
2017-11-08T02:10:56.331Z,15.00
2017-11-08T02:13:23.787Z,17.30
2017-11-08T02:15:51.265Z,15.00
2017-11-08T02:18:21.528Z,14.87
2017-11-08T02:20:48.984Z,16.10
2017-11-08T02:23:16.424Z,15.30
2017-11-08T02:25:43.889Z,14.70
2017-11-08T02:28:11.325Z,16.33
2017-11-08T02:30:39.641Z,14.87
2017-11-08T02:33:07.102Z,16.67
2017-11-08T02:35:34.582Z,15.50
2017-11-08T02:38:02.044Z,13.80
2017-11-08T02:40:29.517Z,16.03
2017-11-08T02:42:56.959Z,16.10
2017-11-08T02:45:30.054Z,14.67
2017-11-08T02:47:57.500Z,17.03
2017-11-08T02:50:24.948Z,15.23
2017-11-08T02:52:52.403Z,14.87
2017-11-08T02:55:19.864Z,14.93
2017-11-08T02:57:47.314Z,15.20
2017-11-08T03:00:14.772Z,15.13
2017-11-08T03:02:47.951Z,15.13
2017-11-08T03:05:18.334Z,16.43
2017-11-08T03:07:45.785Z,15.47
2017-11-08T03:10:13.234Z,13.97
2017-11-08T03:12:40.667Z,15.50
2017-11-08T03:15:08.114Z,15.10
2017-11-08T03:17:35.574Z,15.80
2017-11-08T03:20:03.032Z,15.97
2017-11-08T03:22:30.522Z,15.83
2017-11-08T03:24:57.975Z,16.70
2017-11-08T03:27:25.424Z,15.60
2017-11-08T03:29:52.871Z,15.67
2017-11-08T03:32:26.258Z,14.93
2017-11-08T03:34:53.708Z,16.00
2017-11-08T03:37:21.153Z,16.37
2017-11-08T03:39:48.617Z,16.13
2017-11-08T03:42:16.078Z,15.83
2017-11-08T03:44:43.550Z,16.73
2017-11-08T03:47:11.049Z,16.50
2017-11-08T03:49:39.285Z,16.43
2017-11-08T03:52:06.750Z,15.20
2017-11-08T03:54:34.221Z,15.60
2017-11-08T03:57:01.675Z,17.37
2017-11-08T03:59:29.139Z,16.20
2017-11-08T04:01:56.591Z,17.50
2017-11-08T04:04:24.042Z,16.93
2017-11-08T04:06:51.477Z,16.40
2017-11-08T04:09:18.929Z,18.33
2017-11-08T04:11:46.392Z,16.07
2017-11-08T04:14:13.838Z,18.53
2017-11-08T04:16:41.291Z,17.67
2017-11-08T04:19:08.736Z,17.90
2017-11-08T04:21:36.173Z,16.60
2017-11-08T04:24:04.412Z,17.77
2017-11-08T04:26:31.875Z,18.70
2017-11-08T04:28:59.328Z,17.50
2017-11-08T04:31:26.790Z,17.70
2017-11-08T04:33:54.249Z,16.57
2017-11-08T04:36:21.712Z,17.63
2017-11-08T04:38:49.154Z,19.20
2017-11-08T04:41:16.624Z,17.43
2017-11-08T04:43:44.075Z,18.07
2017-11-08T04:46:11.551Z,17.70
2017-11-08T04:48:43.933Z,18.30
2017-11-08T04:51:12.164Z,19.30
2017-11-08T04:53:39.699Z,19.13
2017-11-08T04:56:07.156Z,19.50
2017-11-08T04:58:34.603Z,18.23
2017-11-08T05:01:02.049Z,20.50
2017-11-08T05:03:30.247Z,18.63
2017-11-08T05:05:57.733Z,20.80
2017-11-08T05:08:25.177Z,19.10
2017-11-08T05:10:52.621Z,18.13
2017-11-08T05:13:20.063Z,20.60
2017-11-08T05:15:47.506Z,18.63
2017-11-08T05:18:15.796Z,20.77
2017-11-08T05:20:43.228Z,18.87
2017-11-08T05:23:14.817Z,20.27
2017-11-08T05:25:42.246Z,21.13
2017-11-08T05:28:10.462Z,23.00
2017-11-08T05:30:37.912Z,20.00
2017-11-08T05:33:05.353Z,20.90
2017-11-08T05:35:32.845Z,21.43
2017-11-08T05:38:00.300Z,21.70
2017-11-08T05:40:27.749Z,19.50
2017-11-08T05:42:55.213Z,20.60
2017-11-08T05:45:22.746Z,19.70
2017-11-08T05:47:50.211Z,21.57
2017-11-08T05:50:17.745Z,21.00
2017-11-08T05:52:45.958Z,20.70
2017-11-08T05:55:13.419Z,21.83
2017-11-08T05:57:40.872Z,20.97
2017-11-08T06:00:08.327Z,21.83
2017-11-08T06:02:35.770Z,21.60
2017-11-08T06:05:03.416Z,21.73
2017-11-08T06:07:31.644Z,20.90
2017-11-08T06:09:59.074Z,23.20
2017-11-08T06:15:26.585Z,22.70
2017-11-08T06:17:54.036Z,22.57
2017-11-08T06:20:21.472Z,23.90
2017-11-08T06:22:49.013Z,23.00
2017-11-08T06:25:16.466Z,24.17
2017-11-08T06:27:43.900Z,25.13
2017-11-08T06:30:11.337Z,24.00
2017-11-08T06:32:38.805Z,22.60
2017-11-08T06:35:06.245Z,22.00
2017-11-08T06:37:33.709Z,23.90
2017-11-08T06:40:01.149Z,23.20
2017-11-08T06:42:28.602Z,23.80
2017-11-08T06:44:56.046Z,23.70
2017-11-08T06:47:23.510Z,23.57
2017-11-08T06:49:50.984Z,22.40
2017-11-08T06:52:18.426Z,23.07
2017-11-08T06:54:45.870Z,22.90
2017-11-08T06:57:13.316Z,25.50
2017-11-08T06:59:40.765Z,25.40
2017-11-08T07:02:08.201Z,25.67
2017-11-08T07:04:36.405Z,24.13
2017-11-08T07:07:03.842Z,24.77
2017-11-08T07:09:32.053Z,24.90
2017-11-08T07:11:59.513Z,25.17
2017-11-08T07:14:26.934Z,23.37
2017-11-08T07:17:00.007Z,24.50
2017-11-08T07:19:27.446Z,23.97
2017-11-08T07:22:07.773Z,24.97
2017-11-08T07:24:35.229Z,25.43
2017-11-08T07:27:02.683Z,23.27
2017-11-08T07:29:30.139Z,25.90
2017-11-08T07:31:57.574Z,24.40
2017-11-08T07:34:25.777Z,23.80
2017-11-08T07:36:53.229Z,23.97
2017-11-08T07:39:20.675Z,24.23
2017-11-08T07:41:48.123Z,26.30
2017-11-08T07:44:15.570Z,24.60
2017-11-08T07:46:43.812Z,25.53
2017-11-08T07:49:11.239Z,25.23
2017-11-08T07:51:38.670Z,24.47
2017-11-08T07:54:11.921Z,26.87
2017-11-08T07:56:39.381Z,26.40
2017-11-08T07:59:06.818Z,29.03
2017-11-08T08:01:34.278Z,24.83
2017-11-08T08:04:01.745Z,25.87
2017-11-08T08:06:29.186Z,28.63
2017-11-08T08:08:56.645Z,27.60
2017-11-08T08:11:36.705Z,25.60
2017-11-08T08:14:04.163Z,28.03
2017-11-08T08:16:31.611Z,27.97
2017-11-08T08:18:59.067Z,26.50
2017-11-08T08:21:26.496Z,30.10
2017-11-08T08:23:53.950Z,27.83
2017-11-08T08:26:21.391Z,26.00
2017-11-08T08:28:49.623Z,27.80
2017-11-08T08:31:17.067Z,28.87
2017-11-08T08:33:44.517Z,24.50
2017-11-08T08:36:12.961Z,27.40
2017-11-08T08:38:41.179Z,25.00
2017-11-08T08:41:08.629Z,24.93
2017-11-08T08:43:36.088Z,26.43
2017-11-08T08:46:03.522Z,27.23
2017-11-08T08:48:30.976Z,26.03
2017-11-08T08:50:59.182Z,24.50
2017-11-08T08:53:26.637Z,26.87
2017-11-08T08:55:54.097Z,28.50
2017-11-08T08:58:21.549Z,28.60
2017-11-08T09:00:49.017Z,26.50
2017-11-08T09:03:21.168Z,27.20
2017-11-08T09:05:48.649Z,24.57
2017-11-08T09:08:16.097Z,28.50
2017-11-08T09:10:43.557Z,26.10
2017-11-08T09:13:11.005Z,23.93
2017-11-08T09:15:38.455Z,25.33
2017-11-08T09:18:05.989Z,25.90
2017-11-08T09:20:33.441Z,25.43
2017-11-08T09:23:01.662Z,26.90
2017-11-08T09:25:30.898Z,24.77
2017-11-08T09:27:58.338Z,25.73
2017-11-08T09:30:25.794Z,24.70
2017-11-08T09:32:53.241Z,27.43
2017-11-08T09:35:23.453Z,26.07
2017-11-08T09:40:46.548Z,24.40
2017-11-08T09:43:19.822Z,26.87
2017-11-08T09:45:47.271Z,27.17
2017-11-08T09:48:14.745Z,27.20
2017-11-08T09:50:42.164Z,26.30
2017-11-08T09:53:17.161Z,27.10
2017-11-08T09:55:44.602Z,25.97
2017-11-08T09:58:12.050Z,28.83
2017-11-08T10:00:42.620Z,30.33
2017-11-08T10:03:10.834Z,26.83
2017-11-08T10:05:38.300Z,29.10
2017-11-08T10:08:05.730Z,25.57
2017-11-08T10:10:33.198Z,26.63
2017-11-08T10:13:06.262Z,27.83
2017-11-08T10:15:34.489Z,28.27
2017-11-08T10:18:02.034Z,27.50
2017-11-08T10:20:29.566Z,27.30
2017-11-08T10:23:00.837Z,27.90
2017-11-08T10:25:31.548Z,28.43
2017-11-08T10:27:59.821Z,29.80
2017-11-08T10:30:28.336Z,29.20
2017-11-08T10:32:55.874Z,27.47
2017-11-08T10:35:24.170Z,26.30
2017-11-08T10:37:51.718Z,28.23
2017-11-08T10:40:19.170Z,28.03
2017-11-08T10:42:46.573Z,26.77
2017-11-08T10:45:14.798Z,30.50
2017-11-08T10:47:42.259Z,30.30
2017-11-08T10:50:09.703Z,27.37
2017-11-08T10:52:40.084Z,27.30
2017-11-08T10:55:08.289Z,27.47
2017-11-08T10:57:35.766Z,27.93
2017-11-08T11:03:06.852Z,30.13
2017-11-08T11:05:34.316Z,28.20
2017-11-08T11:08:01.767Z,27.30
2017-11-08T11:10:29.249Z,29.60
2017-11-08T11:12:56.719Z,26.37
2017-11-08T11:15:24.925Z,28.33
2017-11-08T11:17:52.394Z,27.30
2017-11-08T11:20:19.850Z,27.50
2017-11-08T11:22:47.290Z,28.40
2017-11-08T11:25:16.674Z,29.13
2017-11-08T11:27:44.928Z,28.43
2017-11-08T11:30:12.385Z,31.77
2017-11-08T11:32:46.564Z,31.33
2017-11-08T11:35:14.007Z,26.97
2017-11-08T11:37:47.308Z,29.03
2017-11-08T11:40:14.806Z,27.70
2017-11-08T11:42:42.243Z,29.83
2017-11-08T11:45:09.699Z,27.87
2017-11-08T11:47:37.138Z,29.77
2017-11-08T11:50:04.684Z,31.03
2017-11-08T11:52:32.110Z,29.27
2017-11-08T11:55:00.335Z,28.97
2017-11-08T11:57:27.803Z,32.27
2017-11-08T11:59:55.292Z,31.20
2017-11-08T12:02:22.742Z,32.03
2017-11-08T12:04:50.215Z,31.63
2017-11-08T12:07:17.676Z,32.97
2017-11-08T12:09:45.126Z,29.97
2017-11-08T12:12:12.585Z,29.97
2017-11-08T12:14:40.031Z,34.67
2017-11-08T12:17:07.508Z,32.87
2017-11-08T12:19:37.870Z,34.47
2017-11-08T12:22:05.344Z,33.80
2017-11-08T12:24:32.778Z,34.50
2017-11-08T12:27:06.017Z,33.47
2017-11-08T12:29:36.059Z,30.30
2017-11-08T12:32:03.509Z,32.50
2017-11-08T12:34:30.948Z,34.53
2017-11-08T12:36:58.413Z,31.77
2017-11-08T12:39:33.551Z,34.33
2017-11-08T12:42:26.642Z,33.30
2017-11-08T12:45:09.066Z,32.37
2017-11-08T12:47:37.988Z,32.17
2017-11-08T12:50:05.452Z,32.97
2017-11-08T12:52:32.942Z,34.57
2017-11-08T12:55:05.011Z,32.47
2017-11-08T12:57:37.087Z,31.77
2017-11-08T13:00:04.588Z,31.10
2017-11-08T13:02:32.045Z,33.23
2017-11-08T13:04:59.494Z,33.03
2017-11-08T13:07:53.691Z,34.77
2017-11-08T13:10:30.676Z,31.03
2017-11-08T13:12:58.183Z,32.23
2017-11-08T13:15:26.406Z,31.97
2017-11-08T13:17:53.864Z,31.53
2017-11-08T13:20:21.334Z,32.07
2017-11-08T13:23:04.703Z,32.57
2017-11-08T13:25:33.168Z,30.13
2017-11-08T13:28:00.681Z,31.27
2017-11-08T13:30:32.073Z,30.10
2017-11-08T13:32:59.784Z,31.13
2017-11-08T13:35:27.234Z,30.27
2017-11-08T13:37:54.796Z,31.00
2017-11-08T13:40:22.268Z,30.60
2017-11-08T13:42:49.731Z,33.07
2017-11-08T13:45:17.173Z,30.80
2017-11-08T13:48:04.430Z,30.93
2017-11-08T13:50:31.888Z,32.63
2017-11-08T13:52:59.336Z,30.60
2017-11-08T13:55:26.791Z,32.30
2017-11-08T13:57:54.261Z,32.90
2017-11-08T14:00:21.747Z,30.53
2017-11-08T14:05:52.318Z,31.80
2017-11-08T14:08:19.782Z,30.10
2017-11-08T14:10:47.257Z,31.10
2017-11-08T14:13:28.427Z,31.50
2017-11-08T14:16:02.575Z,32.83
2017-11-08T14:18:30.031Z,33.43
2017-11-08T14:20:57.487Z,34.90
2017-11-08T14:23:24.944Z,32.77
2017-11-08T14:25:52.398Z,33.73
2017-11-08T14:28:25.049Z,34.87
2017-11-08T14:30:52.494Z,32.47
2017-11-08T14:33:19.930Z,33.80
2017-11-08T14:35:48.144Z,32.33
2017-11-08T14:38:15.604Z,31.13
2017-11-08T14:40:43.802Z,33.80
2017-11-08T14:43:11.248Z,33.80
2017-11-08T14:45:38.686Z,33.60
2017-11-08T14:48:06.138Z,32.10
2017-11-08T14:50:33.626Z,33.40
2017-11-08T14:53:06.604Z,30.80
2017-11-08T14:55:34.135Z,32.90
2017-11-08T14:58:02.349Z,32.43
2017-11-08T15:00:30.751Z,37.73
2017-11-08T15:02:58.206Z,35.63
2017-11-08T15:05:25.690Z,32.30
2017-11-08T15:07:53.168Z,34.20
2017-11-08T15:10:21.370Z,32.97
2017-11-08T15:12:48.823Z,34.23
2017-11-08T15:15:22.959Z,36.50
2017-11-08T15:17:50.448Z,34.23
2017-11-08T15:20:23.829Z,36.97
2017-11-08T15:22:51.285Z,35.17
2017-11-08T15:25:18.743Z,36.03
2017-11-08T15:27:46.188Z,41.70
2017-11-08T15:30:19.363Z,35.27
2017-11-08T15:32:46.820Z,35.57
2017-11-08T15:35:15.293Z,34.33
2017-11-08T15:37:42.767Z,37.23
2017-11-08T15:40:10.289Z,37.40
2017-11-08T15:42:38.534Z,35.30
2017-11-08T15:45:05.995Z,38.10
2017-11-08T15:47:48.182Z,36.80
2017-11-08T15:50:15.658Z,39.57
2017-11-08T15:52:43.094Z,36.43
2017-11-08T15:55:10.546Z,38.50
2017-11-08T15:57:38.021Z,35.93
2017-11-08T16:00:05.492Z,33.43
2017-11-08T16:02:32.916Z,36.17
2017-11-08T16:05:00.382Z,39.37
2017-11-08T16:07:27.830Z,35.67
2017-11-08T16:09:55.294Z,38.03
2017-11-08T16:12:22.759Z,39.27
2017-11-08T16:14:50.231Z,35.17
2017-11-08T16:17:17.722Z,36.67
2017-11-08T16:19:45.203Z,32.70
2017-11-08T16:22:13.786Z,40.33
2017-11-08T16:24:45.866Z,37.30
2017-11-08T16:27:27.869Z,36.47
2017-11-08T16:29:55.335Z,38.43
2017-11-08T16:32:25.384Z,39.27
2017-11-08T16:34:57.166Z,39.80
2017-11-08T16:37:30.048Z,38.97
2017-11-08T16:39:57.511Z,38.70
2017-11-08T16:42:24.943Z,37.30
2017-11-08T16:44:53.174Z,37.63
2017-11-08T16:47:23.968Z,35.30
2017-11-08T16:49:52.364Z,37.37
2017-11-08T16:52:19.816Z,36.23
2017-11-08T16:54:47.272Z,34.50
2017-11-08T16:57:14.747Z,37.47
2017-11-08T16:59:42.185Z,36.00
2017-11-08T17:02:09.654Z,33.77
2017-11-08T17:04:37.111Z,40.53
2017-11-08T17:07:04.542Z,35.83
2017-11-08T17:09:56.562Z,40.33
2017-11-08T17:12:24.819Z,37.40
2017-11-08T17:14:52.262Z,36.17
2017-11-08T17:17:19.714Z,35.33
2017-11-08T17:19:49.208Z,34.33
2017-11-08T17:22:16.648Z,35.53
2017-11-08T17:24:44.113Z,41.33
2017-11-08T17:27:11.593Z,35.00
2017-11-08T17:29:39.051Z,35.20
2017-11-08T17:32:14.933Z,37.27
2017-11-08T17:34:43.167Z,39.90
2017-11-08T17:37:10.612Z,36.97
2017-11-08T17:39:38.070Z,32.90
2017-11-08T17:42:05.510Z,35.17
2017-11-08T17:44:32.958Z,33.90
2017-11-08T17:47:00.396Z,32.63
2017-11-08T17:49:28.614Z,32.50
2017-11-08T17:51:56.050Z,32.87
2017-11-08T17:54:23.490Z,35.20
2017-11-08T17:56:51.747Z,34.97
2017-11-08T17:59:20.296Z,32.03
2017-11-08T18:01:47.747Z,32.93
2017-11-08T18:04:15.185Z,31.67
2017-11-08T18:06:42.624Z,30.53
2017-11-08T18:09:10.838Z,31.27
2017-11-08T18:11:38.286Z,29.70
2017-11-08T18:14:09.618Z,30.70
2017-11-08T18:16:39.003Z,27.37
2017-11-08T18:19:14.900Z,30.93
2017-11-08T18:21:43.359Z,29.13
2017-11-08T18:24:10.813Z,29.00
2017-11-08T18:26:38.425Z,29.17
2017-11-08T18:29:10.435Z,27.30
2017-11-08T18:31:37.886Z,28.87
2017-11-08T18:37:00.148Z,29.00
2017-11-08T18:39:27.614Z,27.07
2017-11-08T18:41:55.060Z,26.20
2017-11-08T18:44:22.523Z,26.30
2017-11-08T18:46:50.019Z,24.87
2017-11-08T18:49:17.474Z,27.30
2017-11-08T18:51:44.931Z,26.90
2017-11-08T18:54:12.385Z,27.20
2017-11-08T18:56:39.851Z,26.70
2017-11-08T18:59:13.778Z,26.47
2017-11-08T19:01:41.274Z,26.47
2017-11-08T19:04:08.756Z,24.77
2017-11-08T19:06:36.292Z,26.70
2017-11-08T19:09:03.779Z,23.90
2017-11-08T19:11:31.221Z,26.70
2017-11-08T19:14:03.506Z,25.20
2017-11-08T19:16:30.995Z,25.83
2017-11-08T19:19:04.734Z,25.67
2017-11-08T19:21:33.002Z,24.17
2017-11-08T19:24:01.265Z,24.90
2017-11-08T19:26:28.815Z,24.60
2017-11-08T19:29:00.208Z,26.77
2017-11-08T19:31:28.652Z,27.83
2017-11-08T19:33:56.107Z,26.20
2017-11-08T19:36:23.643Z,25.63
2017-11-08T19:38:51.137Z,29.67
2017-11-08T19:41:18.589Z,26.67
2017-11-08T19:43:46.050Z,25.77
2017-11-08T19:46:14.268Z,27.60
2017-11-08T19:48:41.707Z,25.10
2017-11-08T19:51:09.411Z,25.70
2017-11-08T19:53:36.844Z,26.27
2017-11-08T19:56:04.286Z,25.60
2017-11-08T19:58:31.727Z,26.90
2017-11-08T20:00:59.161Z,26.00
2017-11-08T20:03:28.686Z,25.87
2017-11-08T20:05:56.898Z,25.40
2017-11-08T20:08:25.450Z,26.10
2017-11-08T20:10:52.893Z,25.10
2017-11-08T20:13:20.322Z,25.30
2017-11-08T20:15:47.771Z,25.00
2017-11-08T20:18:15.211Z,25.37
2017-11-08T20:20:49.263Z,22.37
2017-11-08T20:23:23.885Z,23.10
2017-11-08T20:25:55.770Z,25.47
2017-11-08T20:28:24.011Z,23.87
2017-11-08T20:30:51.593Z,23.03
2017-11-08T20:33:19.051Z,23.80
2017-11-08T20:35:47.260Z,23.90
2017-11-08T20:38:14.697Z,24.77
2017-11-08T20:40:42.146Z,24.37
2017-11-08T20:43:10.354Z,23.47
2017-11-08T20:45:37.781Z,22.47
2017-11-08T20:48:06.050Z,24.50
2017-11-08T20:50:34.313Z,24.40
2017-11-08T20:53:01.751Z,22.70
2017-11-08T20:55:29.201Z,21.13
2017-11-08T20:57:56.670Z,26.40
2017-11-08T21:00:24.119Z,26.10
2017-11-08T21:02:51.636Z,26.50
2017-11-08T21:05:19.115Z,23.73
2017-11-08T21:07:46.547Z,21.70
2017-11-08T21:10:13.986Z,24.10
2017-11-08T21:12:42.192Z,24.63
2017-11-08T21:15:10.657Z,25.00
2017-11-08T21:17:38.095Z,23.00
2017-11-08T21:20:06.316Z,23.17
2017-11-08T21:22:33.773Z,22.07
2017-11-08T21:25:01.219Z,24.10
2017-11-08T21:27:28.666Z,24.40
2017-11-08T21:29:56.098Z,22.80
2017-11-08T21:32:24.314Z,22.70
2017-11-08T21:34:51.743Z,26.10
2017-11-08T21:37:19.963Z,28.37
2017-11-08T21:39:49.425Z,25.63
2017-11-08T21:42:16.869Z,24.70
2017-11-08T21:44:45.085Z,23.77
2017-11-08T21:47:12.516Z,23.20
2017-11-08T21:49:40.718Z,24.43
2017-11-08T21:52:08.159Z,23.40
2017-11-08T21:54:35.604Z,25.20
2017-11-08T21:57:03.807Z,24.17
2017-11-08T21:59:31.261Z,25.17
2017-11-08T22:01:59.013Z,23.33
2017-11-08T22:04:26.455Z,27.20
2017-11-08T22:06:54.647Z,24.33
2017-11-08T22:09:22.087Z,24.47
2017-11-08T22:11:50.325Z,23.10
2017-11-08T22:14:17.766Z,23.47
2017-11-08T22:16:45.207Z,21.87
2017-11-08T22:19:12.653Z,22.03
2017-11-08T22:21:40.082Z,19.37
2017-11-08T22:24:07.523Z,22.93
2017-11-08T22:26:34.995Z,21.40
2017-11-08T22:29:03.212Z,21.83
2017-11-08T22:31:30.771Z,21.90
2017-11-08T22:33:58.239Z,20.67
2017-11-08T22:36:25.685Z,20.57
2017-11-08T22:38:53.126Z,21.60
2017-11-08T22:41:20.605Z,21.07
2017-11-08T22:43:48.068Z,22.00
2017-11-08T22:46:15.502Z,21.77
2017-11-08T22:48:42.939Z,22.57
2017-11-08T22:51:11.169Z,23.77
2017-11-08T22:53:38.607Z,22.07
2017-11-08T22:56:06.046Z,21.30
2017-11-08T22:58:33.487Z,23.23
2017-11-08T23:01:00.921Z,24.57
2017-11-08T23:03:28.362Z,22.97
2017-11-08T23:05:58.935Z,25.17
2017-11-08T23:08:27.131Z,25.40
2017-11-08T23:10:54.579Z,23.80
2017-11-08T23:13:22.006Z,21.53
2017-11-08T23:15:50.209Z,24.07
2017-11-08T23:18:17.977Z,23.40
2017-11-08T23:20:45.446Z,23.73
2017-11-08T23:23:12.868Z,23.47
2017-11-08T23:25:41.099Z,23.37
2017-11-08T23:28:08.549Z,23.67
2017-11-08T23:30:35.992Z,22.57
2017-11-08T23:33:03.431Z,23.37
2017-11-08T23:35:30.883Z,20.93
2017-11-08T23:37:59.081Z,20.60
2017-11-08T23:40:26.534Z,22.33
2017-11-08T23:43:00.461Z,21.97
2017-11-08T23:45:27.914Z,23.57
2017-11-08T23:47:55.350Z,21.33
2017-11-08T23:50:22.898Z,22.17
2017-11-08T23:52:50.326Z,20.30
2017-11-08T23:55:19.658Z,23.00
2017-11-08T23:57:47.098Z,20.27
